Time;durP1;ratioP1;P1;durP2;ratioP2;P2;SDS_P1;SDS_P2;PMS_P1;PMS_P2;Temp;Humidity;BMP_temperature;BMP_pressure;BME280_temperature;BME280_humidity;BME280_pressure;Samples;Min_cycle;Max_cycle;Signal;HPM_P1;HPM_P2
2021/11/26 00:04:55;;;;;;;42.93;40.03;;;;;;;4.34;100.00;101269.79;2016221;71;32884;-69
2021/11/26 00:10:40;;;;;;;43.90;41.30;;;;;;;4.30;100.00;101271.33;1995115;70;32786;-73
2021/11/26 00:16:32;;;;;;;47.03;44.13;;;;;;;4.39;100.00;101257.55;1994807;71;32829;-69
2021/11/26 00:22:14;;;;;;;44.57;41.67;;;;;;;4.64;100.00;101235.89;2014772;71;32918;-74
2021/11/26 00:27:58;;;;;;;44.73;42.03;;;;;;;4.53;100.00;101223.28;2012980;71;32905;-69
2021/11/26 00:33:43;;;;;;;42.07;39.37;;;;;;;4.58;100.00;101212.38;2016483;71;32852;-73
2021/11/26 00:39:27;;;;;;;44.33;41.83;;;;;;;4.51;100.00;101195.16;1996885;71;32873;-69
2021/11/26 00:45:13;;;;;;;43.60;40.87;;;;;;;4.57;100.00;101179.63;2005989;71;32764;-69
2021/11/26 00:50:58;;;;;;;45.93;43.43;;;;;;;4.57;100.00;101169.45;2000841;71;32857;-69
2021/11/26 00:56:42;;;;;;;41.77;39.30;;;;;;;4.68;100.00;101147.14;1995075;71;32892;-69
2021/11/26 01:02:26;;;;;;;45.40;42.70;;;;;;;4.64;100.00;101145.10;2009386;71;32847;-73
2021/11/26 01:08:10;;;;;;;47.50;44.70;;;;;;;4.34;100.00;101127.33;2006121;71;32952;-73
2021/11/26 01:13:56;;;;;;;48.97;46.07;;;;;;;4.12;100.00;101105.06;2012854;71;32816;-69
2021/11/26 01:19:40;;;;;;;51.73;48.37;;;;;;;3.91;100.00;101086.38;2014969;71;32936;-70
2021/11/26 01:25:26;;;;;;;51.97;48.77;;;;;;;3.78;100.00;101067.35;1996828;71;32771;-71
2021/11/26 01:31:13;;;;;;;51.17;48.00;;;;;;;3.68;100.00;101061.05;2003865;71;33418;-69
2021/11/26 01:36:58;;;;;;;49.33;46.43;;;;;;;3.92;100.00;101051.80;1991303;71;32863;-74
2021/11/26 01:42:44;;;;;;;48.30;45.30;;;;;;;4.15;100.00;101051.53;2012834;71;32857;-73
2021/11/26 01:48:32;;;;;;;48.80;45.90;;;;;;;4.08;100.00;101037.36;2000358;71;32879;-73
2021/11/26 01:54:19;;;;;;;48.30;45.50;;;;;;;4.12;100.00;101024.81;2006176;71;33303;-74
2021/11/26 02:00:11;;;;;;;45.13;42.40;;;;;;;4.38;100.00;100997.36;2009417;71;33424;-69
2021/11/26 02:05:58;;;;;;;45.73;42.77;;;;;;;4.63;100.00;100979.19;2016454;71;32941;-74
2021/11/26 02:11:47;;;;;;;44.03;41.43;;;;;;;4.95;100.00;100963.08;2000714;71;33309;-74
2021/11/26 02:17:39;;;;;;;42.13;39.83;;;;;;;5.16;100.00;100933.47;2011375;71;33011;-70
2021/11/26 02:23:38;;;;;;;41.77;39.20;;;;;;;5.41;100.00;100908.28;2007823;71;32767;-73
2021/11/26 02:29:24;;;;;;;43.40;40.77;;;;;;;5.49;100.00;100890.80;2011129;70;32829;-74
2021/11/26 02:35:10;;;;;;;42.80;40.10;;;;;;;5.39;100.00;100878.23;2016667;71;33002;-68
2021/11/26 02:40:56;;;;;;;42.33;39.77;;;;;;;5.32;100.00;100856.91;1995248;71;32863;-68
2021/11/26 02:46:40;;;;;;;43.70;40.93;;;;;;;5.44;100.00;100837.53;2016384;71;32854;-73
2021/11/26 02:52:24;;;;;;;44.23;41.73;;;;;;;5.29;100.00;100832.64;2009500;71;32837;-73
2021/11/26 02:58:09;;;;;;;43.37;40.87;;;;;;;5.41;100.00;100812.72;2006201;71;32902;-69
2021/11/26 03:03:55;;;;;;;45.20;42.53;;;;;;;5.48;100.00;100802.89;2018599;71;33034;-73
2021/11/26 03:09:39;;;;;;;43.73;41.30;;;;;;;5.44;100.00;100784.66;2013450;71;32792;-73
2021/11/26 03:15:25;;;;;;;44.40;41.90;;;;;;;5.54;100.00;100763.86;2016579;71;32964;-72
2021/11/26 03:21:09;;;;;;;44.50;41.93;;;;;;;5.69;100.00;100744.80;1991341;71;32794;-73
2021/11/26 03:26:55;;;;;;;45.23;42.30;;;;;;;5.77;100.00;100734.16;1998277;71;32853;-68
2021/11/26 03:32:39;;;;;;;47.10;44.40;;;;;;;5.82;100.00;100711.31;1994697;71;32935;-74
2021/11/26 03:38:24;;;;;;;46.60;43.80;;;;;;;5.81;100.00;100696.73;1996850;71;32867;-72
2021/11/26 03:44:08;;;;;;;46.10;43.50;;;;;;;5.85;100.00;100671.69;2004313;71;32945;-68
2021/11/26 03:49:52;;;;;;;45.60;42.80;;;;;;;5.92;100.00;100650.29;2007603;71;32988;-71
2021/11/26 03:55:36;;;;;;;47.00;44.20;;;;;;;5.99;100.00;100628.59;1998244;71;32859;-68
2021/11/26 04:01:20;;;;;;;47.47;44.60;;;;;;;6.01;100.00;100616.19;2004445;71;33330;-75
2021/11/26 04:07:04;;;;;;;46.83;43.90;;;;;;;6.06;100.00;100580.41;2013172;71;32836;-72
2021/11/26 04:12:51;;;;;;;47.00;44.10;;;;;;;6.14;100.00;100559.78;1998343;71;32940;-69
2021/11/26 04:18:35;;;;;;;45.67;42.87;;;;;;;6.18;100.00;100536.09;2013088;71;32954;-73
2021/11/26 04:24:19;;;;;;;48.47;45.47;;;;;;;6.16;100.00;100501.88;1968010;72;32929;-73
2021/11/26 04:30:04;;;;;;;49.50;46.40;;;;;;;6.09;100.00;100465.45;2016630;71;33440;-68
2021/11/26 04:35:49;;;;;;;46.73;44.03;;;;;;;6.09;100.00;100451.66;2016511;71;32820;-73
2021/11/26 04:41:33;;;;;;;46.87;44.17;;;;;;;6.05;100.00;100419.38;2016717;71;32962;-73
2021/11/26 04:47:17;;;;;;;46.43;43.40;;;;;;;6.06;100.00;100401.20;2011671;71;33313;-68
2021/11/26 04:53:02;;;;;;;46.30;43.40;;;;;;;6.08;100.00;100382.45;2003747;71;33273;-68
2021/11/26 04:58:46;;;;;;;46.87;43.93;;;;;;;6.00;100.00;100360.89;1995018;71;33251;-68
2021/11/26 05:04:29;;;;;;;45.80;43.10;;;;;;;6.06;100.00;100334.20;2007988;71;32792;-68
2021/11/26 05:10:17;;;;;;;46.77;43.97;;;;;;;6.10;100.00;100348.55;2018342;71;32839;-69
2021/11/26 05:16:01;;;;;;;49.97;46.57;;;;;;;6.10;100.00;100328.42;2014548;71;32935;-72
2021/11/26 05:21:45;;;;;;;47.87;45.03;;;;;;;6.07;100.00;100319.32;1996771;71;32821;-73
2021/11/26 05:27:29;;;;;;;47.37;44.37;;;;;;;6.12;100.00;100297.30;2016584;71;33326;-69
2021/11/26 05:33:13;;;;;;;49.03;45.83;;;;;;;6.09;100.00;100275.75;2013020;71;33334;-69
2021/11/26 05:38:57;;;;;;;47.60;45.00;;;;;;;6.20;100.00;100270.58;2004378;71;33250;-68
2021/11/26 05:44:42;;;;;;;47.73;44.83;;;;;;;6.23;100.00;100258.99;2016554;71;32912;-68
2021/11/26 05:50:27;;;;;;;47.07;44.27;;;;;;;6.28;100.00;100243.84;2003884;71;32852;-72
2021/11/26 05:56:12;;;;;;;46.07;43.27;;;;;;;6.32;100.00;100220.97;2002398;71;33286;-71
2021/11/26 06:01:56;;;;;;;48.50;45.40;;;;;;;6.34;100.00;100195.85;2013087;71;32847;-68
2021/11/26 06:07:41;;;;;;;47.03;44.23;;;;;;;6.38;100.00;100182.63;1998750;71;33273;-69
2021/11/26 06:13:27;;;;;;;49.17;46.17;;;;;;;6.34;100.00;100157.23;2018418;71;32932;-73
2021/11/26 06:19:15;;;;;;;50.77;47.50;;;;;;;6.41;100.00;100131.62;2009926;71;33468;-73
2021/11/26 06:25:00;;;;;;;49.13;46.23;;;;;;;6.38;100.00;100101.80;2013075;71;33389;-68
2021/11/26 06:30:45;;;;;;;50.37;47.37;;;;;;;6.42;100.00;100095.20;2007806;71;32845;-67
2021/11/26 06:36:32;;;;;;;47.87;44.87;;;;;;;6.43;100.00;100063.73;1998623;71;32878;-73
2021/11/26 06:42:21;;;;;;;50.10;46.63;;;;;;;6.44;100.00;100039.20;2014894;71;33063;-72
2021/11/26 06:48:08;;;;;;;52.03;48.50;;;;;;;6.40;100.00;100019.08;2014580;71;32813;-72
2021/11/26 06:53:57;;;;;;;50.10;46.87;;;;;;;6.52;100.00;100002.77;2009292;71;33364;-72
2021/11/26 06:59:40;;;;;;;50.87;47.57;;;;;;;6.56;100.00;99990.89;2018190;71;32986;-73
2021/11/26 07:05:25;;;;;;;49.83;46.73;;;;;;;6.57;100.00;99973.25;1941018;74;33555;-74
2021/11/26 07:11:10;;;;;;;50.40;47.17;;;;;;;6.61;100.00;99950.05;2011117;71;32876;-69
2021/11/26 07:17:02;;;;;;;50.40;47.23;;;;;;;6.57;100.00;99924.13;2005907;71;32793;-68
2021/11/26 07:22:46;;;;;;;49.83;46.57;;;;;;;6.55;100.00;99909.23;2016741;71;33353;-74
2021/11/26 07:28:31;;;;;;;50.30;47.17;;;;;;;6.48;100.00;99891.34;2012942;71;32937;-76
2021/11/26 07:34:16;;;;;;;51.13;47.63;;;;;;;6.46;100.00;99884.71;2003712;71;32832;-75
2021/11/26 07:40:03;;;;;;;50.83;47.30;;;;;;;6.60;100.00;99876.66;2018471;71;33281;-68
2021/11/26 07:45:49;;;;;;;50.83;47.50;;;;;;;6.70;100.00;99857.31;2009021;70;32884;-68
2021/11/26 07:51:38;;;;;;;51.17;47.97;;;;;;;6.86;100.00;99861.63;1995012;70;32860;-69
2021/11/26 07:57:26;;;;;;;49.40;46.33;;;;;;;6.97;100.00;99830.11;2009868;71;32833;-68
2021/11/26 08:03:12;;;;;;;51.13;47.87;;;;;;;7.06;100.00;99818.70;2005586;70;33402;-71
2021/11/26 08:09:00;;;;;;;51.27;47.87;;;;;;;7.14;100.00;99814.52;1998220;71;32929;-75
2021/11/26 08:14:47;;;;;;;50.07;46.93;;;;;;;7.18;100.00;99805.92;1994680;71;32893;-71
2021/11/26 08:20:31;;;;;;;51.23;47.90;;;;;;;7.22;100.00;99789.88;2014643;71;32814;-73
2021/11/26 08:26:18;;;;;;;49.40;46.23;;;;;;;7.37;100.00;99766.80;2009111;71;33502;-74
2021/11/26 08:32:04;;;;;;;48.93;45.70;;;;;;;7.54;100.00;99758.07;1963723;72;32826;-74
2021/11/26 08:37:51;;;;;;;51.80;48.17;;;;;;;7.73;100.00;99746.00;2022218;70;33022;-70
2021/11/26 08:43:36;;;;;;;51.10;47.37;;;;;;;7.83;100.00;99729.83;2006288;71;32933;-69
2021/11/26 08:49:20;;;;;;;50.57;46.90;;;;;;;7.90;100.00;99712.34;2016500;71;33288;-74
2021/11/26 08:55:11;;;;;;;51.90;48.50;;;;;;;7.96;100.00;99704.23;2014644;70;33483;-68
2021/11/26 09:00:55;;;;;;;53.90;50.30;;;;;;;7.92;100.00;99685.21;2011347;70;32906;-69
2021/11/26 09:06:40;;;;;;;52.07;48.77;;;;;;;7.95;100.00;99678.28;2006004;71;32942;-76
2021/11/26 09:12:27;;;;;;;52.17;48.60;;;;;;;7.98;100.00;99653.62;2014823;71;32979;-70
2021/11/26 09:18:17;;;;;;;51.33;47.63;;;;;;;7.98;100.00;99654.18;1991321;71;32779;-73
2021/11/26 09:24:03;;;;;;;54.47;50.57;;;;;;;8.01;100.00;99637.81;1956374;71;33573;-75
2021/11/26 09:29:48;;;;;;;51.70;47.77;;;;;;;8.09;100.00;99636.31;2010846;71;32916;-68
2021/11/26 09:35:37;;;;;;;50.03;46.43;;;;;;;8.20;100.00;99629.53;2012935;71;32836;-69
2021/11/26 09:41:21;;;;;;;51.43;47.97;;;;;;;8.31;100.00;99647.64;2014795;70;33003;-75
2021/11/26 09:47:07;;;;;;;49.77;45.70;;;;;;;8.31;100.00;99668.95;2000748;71;33405;-76
2021/11/26 09:52:52;;;;;;;47.97;44.47;;;;;;;8.24;100.00;99610.66;2005898;71;32778;-69
2021/11/26 09:58:38;;;;;;;48.23;44.63;;;;;;;8.32;100.00;99615.27;1995045;71;32954;-75
2021/11/26 10:04:23;;;;;;;47.80;44.60;;;;;;;8.32;100.00;99613.89;2002859;71;32832;-75
2021/11/26 10:10:12;;;;;;;48.93;45.47;;;;;;;8.42;100.00;99610.41;1994859;71;33356;-70
2021/11/26 10:15:57;;;;;;;48.90;45.40;;;;;;;8.51;100.00;99609.98;2016504;71;32856;-68
2021/11/26 10:21:43;;;;;;;56.10;52.17;;;;;;;8.60;100.00;99602.62;2006085;71;33356;-75
2021/11/26 10:27:37;;;;;;;57.57;53.57;;;;;;;8.75;100.00;99598.77;2016561;71;32883;-76
2021/11/26 10:33:28;;;;;;;51.10;47.20;;;;;;;9.01;100.00;99583.34;1991538;71;33353;-72
2021/11/26 10:39:22;;;;;;;50.13;46.63;;;;;;;8.95;100.00;99577.63;2009574;71;33319;-76
2021/11/26 10:45:20;;;;;;;51.53;47.67;;;;;;;8.90;100.00;99545.08;2002200;71;32860;-76
2021/11/26 10:51:07;;;;;;;51.30;47.23;;;;;;;9.03;100.00;99538.15;2016736;71;32860;-75
2021/11/26 11:03:02;;;;;;;50.73;47.00;;;;;;;9.07;100.00;99493.47;2009355;71;32837;-69
2021/11/26 11:08:49;;;;;;;48.17;44.47;;;;;;;9.64;100.00;99483.38;2000620;71;33253;-74
2021/11/26 11:14:34;;;;;;;47.93;44.50;;;;;;;9.75;100.00;99477.31;2011763;71;33341;-75
2021/11/26 11:20:23;;;;;;;50.90;47.60;;;;;;;9.74;100.00;99491.47;2014773;71;33376;-69
2021/11/26 11:26:08;;;;;;;49.93;46.43;;;;;;;9.60;100.00;99469.33;2005835;71;32792;-74
2021/11/26 11:31:55;;;;;;;49.90;46.40;;;;;;;9.53;100.00;99448.16;2018623;70;32823;-74
2021/11/26 11:37:44;;;;;;;48.37;45.17;;;;;;;9.54;100.00;99442.88;2019004;70;32851;-70
2021/11/26 11:43:44;;;;;;;45.20;42.30;;;;;;;9.66;100.00;99422.91;1995080;71;33265;-69
2021/11/26 11:49:31;;;;;;;43.53;40.87;;;;;;;9.74;100.00;99407.73;2009318;71;33386;-70
2021/11/26 11:55:38;;;;;;;44.73;42.03;;;;;;;9.74;100.00;99388.89;2014880;71;32848;-70
2021/11/26 12:01:32;;;;;;;47.50;44.70;;;;;;;9.55;100.00;99364.94;2011121;71;32832;-74
2021/11/26 12:07:30;;;;;;;45.80;43.07;;;;;;;9.47;100.00;99356.00;2009334;71;32884;-71
2021/11/26 12:13:27;;;;;;;46.73;43.83;;;;;;;9.46;100.00;99329.97;1998277;71;32966;-73
2021/11/26 12:19:27;;;;;;;44.80;42.13;;;;;;;9.33;100.00;99314.22;2014782;71;33322;-70
2021/11/26 12:25:33;;;;;;;47.10;44.30;;;;;;;9.53;100.00;99283.25;2000594;71;32855;-74
2021/11/26 12:31:22;;;;;;;46.87;44.07;;;;;;;9.64;100.00;99269.36;1991692;71;32783;-70
2021/11/26 12:37:24;;;;;;;49.00;46.30;;;;;;;9.64;100.00;99256.06;1940837;74;33018;-74
2021/11/26 12:43:10;;;;;;;45.13;42.63;;;;;;;9.75;100.00;99254.67;2012891;71;33480;-74
2021/11/26 12:49:26;;;;;;;49.37;46.57;;;;;;;9.96;100.00;99244.09;2013482;71;33258;-71
2021/11/26 12:55:02;;;;;;;45.07;42.57;;;;;;;10.04;100.00;99229.44;2013045;71;33454;-69
2021/11/26 13:00:55;;;;;;;46.67;44.07;;;;;;;10.06;100.00;99218.82;1995198;71;32953;-72
2021/11/26 13:06:40;;;;;;;46.27;43.67;;;;;;;9.86;100.00;99215.25;2015173;71;32825;-77
2021/11/26 13:12:33;;;;;;;45.33;42.93;;;;;;;9.64;100.00;99201.45;1996951;70;32934;-69
2021/11/26 13:18:21;;;;;;;37.63;35.53;;;;;;;9.72;100.00;99193.73;2011218;71;32860;-70
2021/11/26 13:24:08;;;;;;;37.10;35.10;;;;;;;9.73;100.00;99168.22;1979819;72;32995;-75
2021/11/26 13:29:54;;;;;;;35.63;33.50;;;;;;;9.82;100.00;99160.19;2004097;70;32751;-71
2021/11/26 13:35:43;;;;;;;36.47;34.47;;;;;;;10.18;100.00;99142.53;2000534;71;32815;-70
2021/11/26 13:41:33;;;;;;;35.03;33.10;;;;;;;10.47;100.00;99132.43;2000524;71;33316;-70
2021/11/26 13:47:23;;;;;;;31.80;30.30;;;;;;;10.55;100.00;99114.13;2013164;70;32798;-75
2021/11/26 13:53:09;;;;;;;29.70;27.90;;;;;;;10.28;100.00;99098.62;2014963;70;33289;-72
2021/11/26 13:58:55;;;;;;;30.00;28.53;;;;;;;10.16;100.00;99101.80;1996658;70;32825;-75
2021/11/26 14:04:43;;;;;;;29.27;27.87;;;;;;;10.05;100.00;99082.65;2000791;70;33259;-76
2021/11/26 14:10:29;;;;;;;32.17;30.47;;;;;;;9.97;100.00;99069.59;2014439;70;32824;-75
2021/11/26 14:16:15;;;;;;;28.00;26.40;;;;;;;10.37;100.00;99059.77;2000207;71;32832;-71
2021/11/26 14:22:08;;;;;;;29.90;28.40;;;;;;;10.57;100.00;99049.97;1996806;70;33237;-68
2021/11/26 14:27:54;;;;;;;34.67;32.97;;;;;;;10.36;100.00;99054.78;2011259;71;33329;-74
2021/11/26 14:33:40;;;;;;;38.03;36.13;;;;;;;9.89;100.00;99042.67;1998743;71;33263;-76
2021/11/26 14:39:35;;;;;;;36.60;34.80;;;;;;;9.77;100.00;99052.20;2016376;71;32816;-75
2021/11/26 14:45:31;;;;;;;34.67;32.97;;;;;;;9.58;100.00;99053.86;1998484;71;33308;-75
2021/11/26 14:51:29;;;;;;;34.60;32.90;;;;;;;9.43;100.00;99061.81;1999450;71;32897;-70
2021/11/26 14:57:18;;;;;;;34.87;32.97;;;;;;;9.30;100.00;99064.95;2002543;71;32879;-69
2021/11/26 15:03:06;;;;;;;35.00;33.30;;;;;;;9.25;100.00;99067.86;2016321;71;32870;-75
2021/11/26 15:08:54;;;;;;;34.67;32.77;;;;;;;9.24;100.00;99070.97;2003742;71;32806;-70
2021/11/26 15:14:41;;;;;;;32.20;30.70;;;;;;;9.26;100.00;99078.37;2011485;71;33379;-70
2021/11/26 15:20:27;;;;;;;31.80;30.00;;;;;;;9.17;100.00;99079.73;2003858;71;32882;-74
2021/11/26 15:26:12;;;;;;;30.40;28.90;;;;;;;9.14;100.00;99076.22;2006708;71;32831;-70
2021/11/26 15:31:56;;;;;;;30.97;29.47;;;;;;;9.03;100.00;99070.69;2013001;71;32874;-70
2021/11/26 15:37:42;;;;;;;32.00;30.50;;;;;;;8.94;100.00;99066.49;1999916;71;32980;-70
2021/11/26 15:43:28;;;;;;;33.60;32.00;;;;;;;8.82;100.00;99060.73;2000640;71;33290;-70
2021/11/26 15:49:12;;;;;;;34.73;33.03;;;;;;;8.77;100.00;99049.79;2007476;70;33301;-75
2021/11/26 15:54:57;;;;;;;32.97;31.37;;;;;;;8.58;100.00;99049.20;1998961;70;32799;-70
2021/11/26 16:00:42;;;;;;;36.67;34.77;;;;;;;8.55;100.00;99047.08;2006004;71;32799;-75
2021/11/26 16:06:31;;;;;;;39.57;37.57;;;;;;;8.34;100.00;99054.25;1997119;71;33484;-69
2021/11/26 16:12:15;;;;;;;43.33;41.03;;;;;;;8.08;100.00;99079.72;2012990;71;32855;-69
2021/11/26 16:17:59;;;;;;;42.53;40.33;;;;;;;7.95;100.00;99070.08;2014700;71;32848;-71
2021/11/26 16:23:44;;;;;;;43.40;41.20;;;;;;;7.96;100.00;99068.36;2005780;71;33292;-75
2021/11/26 16:29:28;;;;;;;42.90;40.73;;;;;;;7.83;100.00;99069.22;2015132;71;32955;-78
2021/11/26 16:35:27;;;;;;;43.47;41.07;;;;;;;7.74;100.00;99066.95;1932218;70;32992;-75
2021/11/26 16:41:05;;;;;;;46.37;43.87;;;;;;;7.80;100.00;99068.46;2013239;70;33300;-70
2021/11/26 16:46:52;;;;;;;42.30;40.00;;;;;;;7.73;100.00;99074.43;2004350;71;33366;-72
2021/11/26 16:52:38;;;;;;;43.33;41.00;;;;;;;7.65;100.00;99073.78;2009013;71;32936;-75
2021/11/26 16:58:23;;;;;;;42.50;40.20;;;;;;;7.60;100.00;99075.27;2016619;71;32833;-72
2021/11/26 17:04:11;;;;;;;42.70;40.40;;;;;;;7.60;100.00;99071.12;2006105;71;32983;-74
2021/11/26 17:10:01;;;;;;;45.90;43.50;;;;;;;7.64;100.00;99063.02;2012941;70;32942;-75
2021/11/26 17:15:51;;;;;;;46.23;43.93;;;;;;;7.57;100.00;99064.02;1998791;71;32906;-68
2021/11/26 17:21:40;;;;;;;45.17;42.70;;;;;;;7.56;100.00;99063.20;1940803;74;32979;-72
2021/11/26 17:27:24;;;;;;;46.27;43.70;;;;;;;7.48;100.00;99070.02;2005698;71;32947;-74
2021/11/26 17:33:09;;;;;;;44.10;41.73;;;;;;;7.44;100.00;99067.05;2018699;71;33362;-72
2021/11/26 17:38:54;;;;;;;44.20;42.00;;;;;;;7.38;100.00;99081.26;2003570;71;32958;-74
2021/11/26 17:44:40;;;;;;;45.00;42.70;;;;;;;7.21;100.00;99079.11;2000511;70;32782;-71
2021/11/26 17:50:25;;;;;;;40.70;38.47;;;;;;;7.22;100.00;99071.09;2014791;71;33392;-72
2021/11/26 17:56:10;;;;;;;41.33;38.93;;;;;;;7.06;100.00;99067.80;2012999;71;33462;-74
2021/11/26 18:01:56;;;;;;;41.50;39.07;;;;;;;6.96;100.00;99067.19;1951437;70;33736;-73
2021/11/26 18:07:43;;;;;;;40.40;37.90;;;;;;;6.92;100.00;99058.70;1994902;71;32826;-68
2021/11/26 18:13:26;;;;;;;40.13;37.63;;;;;;;7.08;100.00;99056.45;2010019;71;33284;-72
2021/11/26 18:19:10;;;;;;;39.03;36.83;;;;;;;6.93;100.00;99054.00;2000442;71;32817;-69
2021/11/26 18:24:56;;;;;;;41.33;38.77;;;;;;;7.01;100.00;99068.47;2016946;71;33340;-69
2021/11/26 18:30:41;;;;;;;42.47;40.07;;;;;;;6.81;100.00;99059.44;2000436;71;32841;-73
2021/11/26 18:36:27;;;;;;;42.27;39.80;;;;;;;6.70;100.00;99047.52;2017253;71;33370;-69
2021/11/26 18:42:12;;;;;;;43.07;40.33;;;;;;;6.68;100.00;99047.81;2012136;71;32840;-75
2021/11/26 18:47:59;;;;;;;43.90;41.20;;;;;;;6.54;100.00;99046.16;2016848;71;32943;-72
2021/11/26 18:53:43;;;;;;;43.13;40.63;;;;;;;6.42;100.00;99040.31;2015309;71;32852;-67
2021/11/26 18:59:28;;;;;;;43.53;40.77;;;;;;;6.33;100.00;99046.49;2016844;71;32840;-74
2021/11/26 19:05:12;;;;;;;45.10;42.50;;;;;;;6.26;100.00;99041.11;1994797;71;32898;-74
2021/11/26 19:10:57;;;;;;;41.57;39.37;;;;;;;6.24;100.00;99033.72;2018875;70;33445;-67
2021/11/26 19:16:41;;;;;;;41.37;39.03;;;;;;;6.32;100.00;99041.30;2009639;71;33424;-67
2021/11/26 19:22:30;;;;;;;36.63;34.70;;;;;;;6.31;100.00;99035.52;2004786;71;32844;-66
2021/11/26 19:28:12;;;;;;;35.87;34.00;;;;;;;6.20;100.00;99005.95;2018520;71;32829;-67
2021/11/26 19:33:58;;;;;;;33.23;31.13;;;;;;;6.09;100.00;98998.95;2008195;71;32819;-67
2021/11/26 19:39:42;;;;;;;36.37;34.23;;;;;;;6.04;100.00;98996.83;2000891;71;32841;-73
2021/11/26 19:45:28;;;;;;;36.30;34.00;;;;;;;5.88;100.00;98980.55;1995347;71;32856;-67
2021/11/26 19:51:13;;;;;;;33.53;31.57;;;;;;;5.75;100.00;99001.12;2018651;71;32798;-73
2021/11/26 19:56:57;;;;;;;34.27;32.30;;;;;;;5.69;100.00;98987.97;2006608;71;32727;-69
2021/11/26 20:02:41;;;;;;;35.87;33.50;;;;;;;5.56;100.00;98977.73;2000428;71;32942;-68
2021/11/26 20:08:26;;;;;;;33.07;30.97;;;;;;;5.52;100.00;98980.00;2017052;71;32887;-69
2021/11/26 20:14:16;;;;;;;33.20;31.03;;;;;;;5.49;100.00;98986.34;2015317;71;33312;-70
2021/11/26 20:20:02;;;;;;;33.80;31.90;;;;;;;5.40;100.00;98970.23;2007885;71;32816;-73
2021/11/26 20:25:46;;;;;;;34.63;32.23;;;;;;;5.34;100.00;98958.23;1995322;71;32824;-72
2021/11/26 20:31:30;;;;;;;35.30;33.13;;;;;;;5.26;100.00;98951.44;2006143;71;33309;-67
2021/11/26 20:37:15;;;;;;;38.53;36.37;;;;;;;5.29;100.00;98950.86;2009723;71;33428;-68
2021/11/26 20:43:01;;;;;;;38.30;36.00;;;;;;;5.10;100.00;98953.32;2013763;71;32829;-75
2021/11/26 20:48:46;;;;;;;40.33;37.83;;;;;;;5.03;100.00;98946.82;2017015;71;32803;-69
2021/11/26 20:54:31;;;;;;;39.40;37.40;;;;;;;5.09;100.00;98931.89;2010080;71;32846;-67
2021/11/26 21:00:19;;;;;;;40.57;38.47;;;;;;;5.07;100.00;98922.28;2011697;71;32989;-68
2021/11/26 21:06:03;;;;;;;39.13;36.90;;;;;;;5.07;100.00;98922.28;2013446;71;32946;-78
2021/11/26 21:11:48;;;;;;;39.33;37.27;;;;;;;5.02;100.00;98907.48;1995365;71;32762;-68
2021/11/26 21:17:32;;;;;;;37.67;35.77;;;;;;;5.13;100.00;98899.91;2004487;71;32772;-75
2021/11/26 21:23:17;;;;;;;41.00;38.80;;;;;;;5.24;100.00;98896.44;2016799;71;33290;-66
2021/11/26 21:29:04;;;;;;;39.10;36.87;;;;;;;5.23;100.00;98885.16;2006370;71;32760;-68
2021/11/26 21:34:49;;;;;;;41.20;39.20;;;;;;;5.07;100.00;98874.95;1995387;71;32759;-74
2021/11/26 21:40:34;;;;;;;41.33;38.90;;;;;;;4.97;100.00;98869.59;2008470;71;32857;-67
2021/11/26 21:46:20;;;;;;;41.33;39.23;;;;;;;5.16;100.00;98853.09;2012223;71;32938;-76
2021/11/26 21:52:05;;;;;;;37.20;35.10;;;;;;;5.07;100.00;98854.88;2010394;71;33334;-74
2021/11/26 21:57:49;;;;;;;38.70;36.40;;;;;;;5.12;100.00;98829.48;2012007;71;33320;-72
2021/11/26 22:03:35;;;;;;;38.30;35.90;;;;;;;5.11;100.00;98822.34;2008405;71;33347;-67
2021/11/26 22:09:19;;;;;;;39.27;36.87;;;;;;;5.18;100.00;98802.71;2015298;71;33278;-74
2021/11/26 22:15:04;;;;;;;37.30;35.13;;;;;;;5.13;100.00;98780.22;2008234;71;32853;-68
2021/11/26 22:20:51;;;;;;;37.70;35.50;;;;;;;5.10;100.00;98755.22;2016712;71;32819;-74
2021/11/26 22:26:35;;;;;;;39.63;37.43;;;;;;;5.08;100.00;98747.84;2010354;71;32783;-68
2021/11/26 22:32:19;;;;;;;36.83;34.57;;;;;;;5.15;100.00;98749.08;2018936;71;33380;-72
2021/11/26 22:38:06;;;;;;;38.80;36.67;;;;;;;5.18;100.00;98728.41;2015280;71;32848;-74
2021/11/26 22:43:54;;;;;;;37.60;35.50;;;;;;;5.22;100.00;98716.47;2010180;71;33270;-73
2021/11/26 22:49:39;;;;;;;36.83;34.57;;;;;;;5.22;100.00;98697.21;2011999;71;33291;-67
2021/11/26 22:55:25;;;;;;;34.80;32.50;;;;;;;5.35;100.00;98673.02;2013353;71;32931;-68
2021/11/26 23:01:10;;;;;;;35.27;33.13;;;;;;;5.41;100.00;98658.05;1999225;70;33377;-68
2021/11/26 23:06:57;;;;;;;35.87;33.63;;;;;;;5.45;100.00;98636.23;2011932;71;32746;-68
2021/11/26 23:12:43;;;;;;;35.13;33.03;;;;;;;5.54;100.00;98626.70;2008090;71;33452;-74
2021/11/26 23:18:29;;;;;;;36.93;34.63;;;;;;;5.55;100.00;98604.94;2013433;71;32904;-67
2021/11/26 23:24:21;;;;;;;35.50;33.47;;;;;;;5.62;100.00;98587.42;1966985;72;32826;-68
2021/11/26 23:29:59;;;;;;;41.60;39.37;;;;;;;5.58;100.00;98580.34;2016841;71;32949;-73
2021/11/26 23:35:44;;;;;;;38.57;36.23;;;;;;;5.55;100.00;98568.59;2018657;71;33307;-72
2021/11/26 23:41:29;;;;;;;45.30;42.33;;;;;;;5.60;100.00;98559.41;2011943;70;32780;-73
2021/11/26 23:47:14;;;;;;;42.67;40.13;;;;;;;5.55;100.00;98560.33;2004377;71;33345;-68
2021/11/26 23:52:59;;;;;;;48.57;45.70;;;;;;;5.52;100.00;98549.12;2016817;71;33369;-74
2021/11/26 23:58:44;;;;;;;50.23;47.03;;;;;;;5.39;100.00;98537.00;2016932;71;32850;-68
